Terminal Aerodrome Forecast
Issued by NWS Glasgow, MT

Home | Current Version | Previous Version | Text Only | Print | Product List | Glossary On
Versions: 1 2 3 4 5 6 7 8 9 10 11 12 13 14 15
953
FTUS45 KGGW 230523
TAFGGW
TAF
KGGW 230523Z 2306/2406 VRB04KT 3SM BR SCT025 BKN080
     FM230800 10006KT 1SM BR OVC015
     FM231100 09008KT 1/2SM FZFG SCT002 OVC010
     FM231700 07010KT 3SM BR VCSH SCT005 OVC015
     FM232100 07008KT P6SM VCSH SCT019 BKN025=

USA.gov is the U.S. government's official web portal to all federal, state and local government web resources and services.